sensor_id;sensor_type;location;lat;lon;timestamp;temperature;humidity
44817;DHT22;30529;53.570;9.964;2023-06-26T00:01:30;22.80;99.90
44817;DHT22;30529;53.570;9.964;2023-06-26T00:03:57;22.70;99.90
44817;DHT22;30529;53.570;9.964;2023-06-26T00:06:24;22.70;99.90
44817;DHT22;30529;53.570;9.964;2023-06-26T00:08:55;22.70;99.90
44817;DHT22;30529;53.570;9.964;2023-06-26T00:11:21;22.70;99.90
44817;DHT22;30529;53.570;9.964;2023-06-26T00:13:48;22.70;99.90
44817;DHT22;30529;53.570;9.964;2023-06-26T00:16:14;22.70;99.90
44817;DHT22;30529;53.570;9.964;2023-06-26T00:18:40;22.70;99.90
44817;DHT22;30529;53.570;9.964;2023-06-26T00:21:06;22.70;99.90
44817;DHT22;30529;53.570;9.964;2023-06-26T00:23:32;22.60;99.90
44817;DHT22;30529;53.570;9.964;2023-06-26T00:25:58;22.60;99.90
44817;DHT22;30529;53.570;9.964;2023-06-26T00:28:24;22.60;99.90
44817;DHT22;30529;53.570;9.964;2023-06-26T00:30:50;22.60;99.90
44817;DHT22;30529;53.570;9.964;2023-06-26T00:33:16;22.60;99.90
44817;DHT22;30529;53.570;9.964;2023-06-26T00:35:42;22.60;99.90
44817;DHT22;30529;53.570;9.964;2023-06-26T00:38:08;22.60;99.90
44817;DHT22;30529;53.570;9.964;2023-06-26T00:40:34;22.50;99.90
44817;DHT22;30529;53.570;9.964;2023-06-26T00:43:01;22.50;99.90
44817;DHT22;30529;53.570;9.964;2023-06-26T00:45:28;22.50;99.90
44817;DHT22;30529;53.570;9.964;2023-06-26T00:47:54;22.50;99.90
44817;DHT22;30529;53.570;9.964;2023-06-26T00:50:21;22.50;99.90
44817;DHT22;30529;53.570;9.964;2023-06-26T00:52:47;22.50;99.90
44817;DHT22;30529;53.570;9.964;2023-06-26T00:55:13;22.50;99.90
44817;DHT22;30529;53.570;9.964;2023-06-26T00:57:39;22.50;99.90
44817;DHT22;30529;53.570;9.964;2023-06-26T01:00:06;22.50;99.90
44817;DHT22;30529;53.570;9.964;2023-06-26T01:02:32;22.50;99.90
44817;DHT22;30529;53.570;9.964;2023-06-26T01:05:00;22.40;99.90
44817;DHT22;30529;53.570;9.964;2023-06-26T01:07:29;22.40;99.90
44817;DHT22;30529;53.570;9.964;2023-06-26T01:09:58;22.40;99.90
44817;DHT22;30529;53.570;9.964;2023-06-26T01:12:24;22.40;99.90
44817;DHT22;30529;53.570;9.964;2023-06-26T01:14:50;22.40;99.90
44817;DHT22;30529;53.570;9.964;2023-06-26T01:17:16;22.30;99.90
44817;DHT22;30529;53.570;9.964;2023-06-26T01:19:43;22.30;99.90
44817;DHT22;30529;53.570;9.964;2023-06-26T01:22:24;22.30;99.90
44817;DHT22;30529;53.570;9.964;2023-06-26T01:27:37;22.10;99.90
44817;DHT22;30529;53.570;9.964;2023-06-26T01:30:04;22.10;99.90
44817;DHT22;30529;53.570;9.964;2023-06-26T01:32:32;22.10;99.90
44817;DHT22;30529;53.570;9.964;2023-06-26T01:34:59;22.10;99.90
44817;DHT22;30529;53.570;9.964;2023-06-26T01:37:26;22.10;99.90
44817;DHT22;30529;53.570;9.964;2023-06-26T01:39:52;22.00;99.90
44817;DHT22;30529;53.570;9.964;2023-06-26T01:42:18;22.00;99.90
44817;DHT22;30529;53.570;9.964;2023-06-26T01:44:45;22.00;99.90
44817;DHT22;30529;53.570;9.964;2023-06-26T01:47:14;22.00;99.90
44817;DHT22;30529;53.570;9.964;2023-06-26T01:49:53;21.90;99.90
44817;DHT22;30529;53.570;9.964;2023-06-26T01:52:29;21.90;99.90
44817;DHT22;30529;53.570;9.964;2023-06-26T01:55:05;21.90;99.90
44817;DHT22;30529;53.570;9.964;2023-06-26T01:57:35;21.90;99.90
44817;DHT22;30529;53.570;9.964;2023-06-26T02:00:03;21.90;99.90
44817;DHT22;30529;53.570;9.964;2023-06-26T02:02:29;21.90;99.90
44817;DHT22;30529;53.570;9.964;2023-06-26T02:04:55;21.80;99.90
44817;DHT22;30529;53.570;9.964;2023-06-26T02:07:22;21.80;99.90
44817;DHT22;30529;53.570;9.964;2023-06-26T02:09:48;21.80;99.90
44817;DHT22;30529;53.570;9.964;2023-06-26T02:12:14;21.80;99.90
44817;DHT22;30529;53.570;9.964;2023-06-26T02:14:40;21.80;99.90
44817;DHT22;30529;53.570;9.964;2023-06-26T02:17:06;21.70;99.90
44817;DHT22;30529;53.570;9.964;2023-06-26T02:19:34;21.80;99.90
44817;DHT22;30529;53.570;9.964;2023-06-26T02:22:00;21.70;99.90
44817;DHT22;30529;53.570;9.964;2023-06-26T02:24:26;21.70;99.90
44817;DHT22;30529;53.570;9.964;2023-06-26T02:26:56;21.60;99.90
44817;DHT22;30529;53.570;9.964;2023-06-26T02:29:23;21.60;99.90
44817;DHT22;30529;53.570;9.964;2023-06-26T02:31:49;21.60;99.90
44817;DHT22;30529;53.570;9.964;2023-06-26T02:34:15;21.60;99.90
44817;DHT22;30529;53.570;9.964;2023-06-26T02:36:40;21.60;99.90
44817;DHT22;30529;53.570;9.964;2023-06-26T02:39:06;21.60;99.90
44817;DHT22;30529;53.570;9.964;2023-06-26T02:41:32;21.50;99.90
44817;DHT22;30529;53.570;9.964;2023-06-26T02:43:58;21.50;99.90
44817;DHT22;30529;53.570;9.964;2023-06-26T02:46:24;21.50;99.90
44817;DHT22;30529;53.570;9.964;2023-06-26T02:48:50;21.50;99.90
44817;DHT22;30529;53.570;9.964;2023-06-26T02:51:16;21.50;99.90
44817;DHT22;30529;53.570;9.964;2023-06-26T02:53:42;21.40;99.90
44817;DHT22;30529;53.570;9.964;2023-06-26T02:56:08;21.50;99.90
44817;DHT22;30529;53.570;9.964;2023-06-26T02:58:34;21.50;99.90
44817;DHT22;30529;53.570;9.964;2023-06-26T03:01:00;21.50;99.90
44817;DHT22;30529;53.570;9.964;2023-06-26T03:03:26;21.40;99.90
44817;DHT22;30529;53.570;9.964;2023-06-26T03:05:52;21.50;99.90
44817;DHT22;30529;53.570;9.964;2023-06-26T03:08:18;21.40;99.90
44817;DHT22;30529;53.570;9.964;2023-06-26T03:10:43;21.50;99.90
44817;DHT22;30529;53.570;9.964;2023-06-26T03:13:09;21.50;99.90
44817;DHT22;30529;53.570;9.964;2023-06-26T03:15:35;21.50;99.90
44817;DHT22;30529;53.570;9.964;2023-06-26T03:18:01;21.50;99.90
44817;DHT22;30529;53.570;9.964;2023-06-26T03:20:27;21.50;99.90
44817;DHT22;30529;53.570;9.964;2023-06-26T03:22:53;21.50;99.90
44817;DHT22;30529;53.570;9.964;2023-06-26T03:25:19;21.60;99.90
44817;DHT22;30529;53.570;9.964;2023-06-26T03:27:45;21.60;99.90
44817;DHT22;30529;53.570;9.964;2023-06-26T03:30:11;21.60;99.90
44817;DHT22;30529;53.570;9.964;2023-06-26T03:32:37;21.60;99.90
44817;DHT22;30529;53.570;9.964;2023-06-26T03:35:03;21.60;99.90
44817;DHT22;30529;53.570;9.964;2023-06-26T03:37:29;21.60;99.90
44817;DHT22;30529;53.570;9.964;2023-06-26T03:39:55;21.60;99.90
44817;DHT22;30529;53.570;9.964;2023-06-26T03:42:22;21.60;99.90
44817;DHT22;30529;53.570;9.964;2023-06-26T03:44:48;21.70;99.90
44817;DHT22;30529;53.570;9.964;2023-06-26T03:47:14;21.60;99.90
44817;DHT22;30529;53.570;9.964;2023-06-26T03:49:40;21.70;99.90
44817;DHT22;30529;53.570;9.964;2023-06-26T03:52:06;21.70;99.90
44817;DHT22;30529;53.570;9.964;2023-06-26T03:54:32;21.80;99.90
44817;DHT22;30529;53.570;9.964;2023-06-26T03:56:59;21.80;99.90
44817;DHT22;30529;53.570;9.964;2023-06-26T03:59:25;21.80;99.90
44817;DHT22;30529;53.570;9.964;2023-06-26T04:01:51;21.80;99.90
44817;DHT22;30529;53.570;9.964;2023-06-26T04:04:17;21.90;99.90
44817;DHT22;30529;53.570;9.964;2023-06-26T04:06:43;21.90;99.90
44817;DHT22;30529;53.570;9.964;2023-06-26T04:09:09;22.00;99.90
44817;DHT22;30529;53.570;9.964;2023-06-26T04:11:34;22.20;99.90
44817;DHT22;30529;53.570;9.964;2023-06-26T04:14:00;22.40;99.90
44817;DHT22;30529;53.570;9.964;2023-06-26T04:16:26;22.60;99.90
44817;DHT22;30529;53.570;9.964;2023-06-26T04:18:53;22.80;99.90
44817;DHT22;30529;53.570;9.964;2023-06-26T04:21:25;23.00;99.90
44817;DHT22;30529;53.570;9.964;2023-06-26T04:23:51;23.10;99.90
44817;DHT22;30529;53.570;9.964;2023-06-26T04:26:17;23.20;99.90
44817;DHT22;30529;53.570;9.964;2023-06-26T04:28:43;23.30;99.90
44817;DHT22;30529;53.570;9.964;2023-06-26T04:31:09;23.50;99.90
44817;DHT22;30529;53.570;9.964;2023-06-26T04:33:36;23.60;99.90
44817;DHT22;30529;53.570;9.964;2023-06-26T04:36:06;23.70;99.90
44817;DHT22;30529;53.570;9.964;2023-06-26T04:38:32;23.80;99.90
44817;DHT22;30529;53.570;9.964;2023-06-26T04:40:59;23.90;99.90
44817;DHT22;30529;53.570;9.964;2023-06-26T04:43:25;24.00;99.90
44817;DHT22;30529;53.570;9.964;2023-06-26T04:45:51;24.00;99.90
44817;DHT22;30529;53.570;9.964;2023-06-26T04:48:17;24.10;99.90
44817;DHT22;30529;53.570;9.964;2023-06-26T04:50:43;24.20;99.90
44817;DHT22;30529;53.570;9.964;2023-06-26T04:53:11;24.20;99.90
44817;DHT22;30529;53.570;9.964;2023-06-26T04:55:37;24.30;99.90
44817;DHT22;30529;53.570;9.964;2023-06-26T04:58:03;24.40;99.90
44817;DHT22;30529;53.570;9.964;2023-06-26T05:00:29;24.50;99.90
44817;DHT22;30529;53.570;9.964;2023-06-26T05:02:55;24.60;99.90
44817;DHT22;30529;53.570;9.964;2023-06-26T05:05:29;24.70;99.90
44817;DHT22;30529;53.570;9.964;2023-06-26T05:07:56;24.80;99.90
44817;DHT22;30529;53.570;9.964;2023-06-26T05:10:22;24.80;99.90
44817;DHT22;30529;53.570;9.964;2023-06-26T05:12:48;24.90;99.90
44817;DHT22;30529;53.570;9.964;2023-06-26T05:15:14;25.00;99.90
44817;DHT22;30529;53.570;9.964;2023-06-26T05:17:40;25.10;99.90
44817;DHT22;30529;53.570;9.964;2023-06-26T05:20:06;25.20;99.90
44817;DHT22;30529;53.570;9.964;2023-06-26T05:22:33;25.30;99.90
44817;DHT22;30529;53.570;9.964;2023-06-26T05:25:02;25.50;99.90
44817;DHT22;30529;53.570;9.964;2023-06-26T05:27:29;25.60;99.90
44817;DHT22;30529;53.570;9.964;2023-06-26T05:29:56;25.70;99.90
44817;DHT22;30529;53.570;9.964;2023-06-26T05:32:22;25.70;99.90
44817;DHT22;30529;53.570;9.964;2023-06-26T05:34:49;25.80;99.90
44817;DHT22;30529;53.570;9.964;2023-06-26T05:37:21;25.80;99.90
44817;DHT22;30529;53.570;9.964;2023-06-26T05:39:47;25.90;99.90
44817;DHT22;30529;53.570;9.964;2023-06-26T05:42:14;26.00;99.90
44817;DHT22;30529;53.570;9.964;2023-06-26T05:44:40;26.20;99.90
44817;DHT22;30529;53.570;9.964;2023-06-26T05:47:06;26.20;99.90
44817;DHT22;30529;53.570;9.964;2023-06-26T05:49:33;26.30;99.90
44817;DHT22;30529;53.570;9.964;2023-06-26T05:51:59;26.40;99.90
44817;DHT22;30529;53.570;9.964;2023-06-26T05:54:25;26.50;99.90
44817;DHT22;30529;53.570;9.964;2023-06-26T05:56:58;26.60;99.90
44817;DHT22;30529;53.570;9.964;2023-06-26T05:59:26;26.60;99.90
44817;DHT22;30529;53.570;9.964;2023-06-26T06:01:52;26.70;99.90
44817;DHT22;30529;53.570;9.964;2023-06-26T06:04:19;26.60;99.90
44817;DHT22;30529;53.570;9.964;2023-06-26T06:06:45;26.50;99.90
44817;DHT22;30529;53.570;9.964;2023-06-26T06:09:10;26.50;99.90
44817;DHT22;30529;53.570;9.964;2023-06-26T06:11:36;26.40;99.90
44817;DHT22;30529;53.570;9.964;2023-06-26T06:14:03;26.30;99.90
44817;DHT22;30529;53.570;9.964;2023-06-26T06:16:29;26.40;99.90
44817;DHT22;30529;53.570;9.964;2023-06-26T06:18:55;26.40;99.90
44817;DHT22;30529;53.570;9.964;2023-06-26T06:21:21;26.40;99.90
44817;DHT22;30529;53.570;9.964;2023-06-26T06:23:47;26.40;99.90
44817;DHT22;30529;53.570;9.964;2023-06-26T06:26:13;26.30;99.90
44817;DHT22;30529;53.570;9.964;2023-06-26T06:28:39;26.30;99.90
44817;DHT22;30529;53.570;9.964;2023-06-26T06:31:05;26.30;99.90
44817;DHT22;30529;53.570;9.964;2023-06-26T06:33:31;26.30;99.90
44817;DHT22;30529;53.570;9.964;2023-06-26T06:35:57;26.40;99.90
44817;DHT22;30529;53.570;9.964;2023-06-26T06:38:23;26.30;99.90
44817;DHT22;30529;53.570;9.964;2023-06-26T06:40:49;26.20;99.90
44817;DHT22;30529;53.570;9.964;2023-06-26T06:43:15;26.20;99.90
44817;DHT22;30529;53.570;9.964;2023-06-26T06:45:41;26.30;99.90
44817;DHT22;30529;53.570;9.964;2023-06-26T06:48:07;26.10;99.90
44817;DHT22;30529;53.570;9.964;2023-06-26T06:50:33;26.00;99.90
44817;DHT22;30529;53.570;9.964;2023-06-26T06:52:59;25.90;99.90
44817;DHT22;30529;53.570;9.964;2023-06-26T06:55:26;25.80;99.90
44817;DHT22;30529;53.570;9.964;2023-06-26T06:57:52;25.70;99.90
44817;DHT22;30529;53.570;9.964;2023-06-26T07:00:18;25.70;99.90
44817;DHT22;30529;53.570;9.964;2023-06-26T07:02:45;25.70;99.90
44817;DHT22;30529;53.570;9.964;2023-06-26T07:05:12;25.70;99.90
44817;DHT22;30529;53.570;9.964;2023-06-26T07:07:39;25.60;99.90
44817;DHT22;30529;53.570;9.964;2023-06-26T07:10:10;25.60;99.90
44817;DHT22;30529;53.570;9.964;2023-06-26T07:12:36;25.60;99.90
44817;DHT22;30529;53.570;9.964;2023-06-26T07:15:04;25.60;99.90
44817;DHT22;30529;53.570;9.964;2023-06-26T07:17:31;25.60;99.90
44817;DHT22;30529;53.570;9.964;2023-06-26T07:19:57;25.60;99.90
44817;DHT22;30529;53.570;9.964;2023-06-26T07:22:23;25.60;99.90
44817;DHT22;30529;53.570;9.964;2023-06-26T07:24:49;25.60;99.90
44817;DHT22;30529;53.570;9.964;2023-06-26T07:27:16;25.70;99.90
44817;DHT22;30529;53.570;9.964;2023-06-26T07:29:44;25.70;99.90
44817;DHT22;30529;53.570;9.964;2023-06-26T07:32:10;25.70;99.90
44817;DHT22;30529;53.570;9.964;2023-06-26T07:34:36;25.70;99.90
44817;DHT22;30529;53.570;9.964;2023-06-26T07:37:02;25.80;99.90
44817;DHT22;30529;53.570;9.964;2023-06-26T07:39:29;25.90;99.90
44817;DHT22;30529;53.570;9.964;2023-06-26T07:41:55;25.90;99.90
44817;DHT22;30529;53.570;9.964;2023-06-26T07:44:22;26.00;99.90
44817;DHT22;30529;53.570;9.964;2023-06-26T07:46:48;26.10;99.90
44817;DHT22;30529;53.570;9.964;2023-06-26T07:49:14;26.20;99.90
44817;DHT22;30529;53.570;9.964;2023-06-26T07:51:40;26.30;99.90
44817;DHT22;30529;53.570;9.964;2023-06-26T07:54:06;26.40;99.90
44817;DHT22;30529;53.570;9.964;2023-06-26T07:56:34;26.50;99.90
44817;DHT22;30529;53.570;9.964;2023-06-26T07:59:00;26.70;99.90
44817;DHT22;30529;53.570;9.964;2023-06-26T08:01:29;27.00;99.90
44817;DHT22;30529;53.570;9.964;2023-06-26T08:03:55;27.20;99.90
44817;DHT22;30529;53.570;9.964;2023-06-26T08:06:21;27.50;99.90
44817;DHT22;30529;53.570;9.964;2023-06-26T08:08:47;27.70;99.90
44817;DHT22;30529;53.570;9.964;2023-06-26T08:11:13;27.70;99.90
44817;DHT22;30529;53.570;9.964;2023-06-26T08:13:39;27.60;99.90
44817;DHT22;30529;53.570;9.964;2023-06-26T08:16:05;27.50;99.90
44817;DHT22;30529;53.570;9.964;2023-06-26T08:18:31;27.50;99.90
44817;DHT22;30529;53.570;9.964;2023-06-26T08:20:57;27.40;99.90
44817;DHT22;30529;53.570;9.964;2023-06-26T08:23:23;27.40;99.90
44817;DHT22;30529;53.570;9.964;2023-06-26T08:25:50;27.40;99.90
44817;DHT22;30529;53.570;9.964;2023-06-26T08:28:16;27.40;99.90
44817;DHT22;30529;53.570;9.964;2023-06-26T08:30:42;27.40;99.90
44817;DHT22;30529;53.570;9.964;2023-06-26T08:33:08;27.40;99.90
44817;DHT22;30529;53.570;9.964;2023-06-26T08:35:38;27.40;99.90
44817;DHT22;30529;53.570;9.964;2023-06-26T08:38:04;27.40;99.90
44817;DHT22;30529;53.570;9.964;2023-06-26T08:40:30;27.60;99.90
44817;DHT22;30529;53.570;9.964;2023-06-26T08:42:57;28.00;99.90
44817;DHT22;30529;53.570;9.964;2023-06-26T08:45:23;28.30;99.90
44817;DHT22;30529;53.570;9.964;2023-06-26T08:47:53;28.60;99.90
44817;DHT22;30529;53.570;9.964;2023-06-26T08:50:22;28.70;99.90
44817;DHT22;30529;53.570;9.964;2023-06-26T08:52:56;28.70;99.90
44817;DHT22;30529;53.570;9.964;2023-06-26T08:55:26;28.60;99.90
44817;DHT22;30529;53.570;9.964;2023-06-26T08:57:53;28.40;99.90
44817;DHT22;30529;53.570;9.964;2023-06-26T09:00:23;28.20;99.90
44817;DHT22;30529;53.570;9.964;2023-06-26T09:02:49;28.00;99.90
44817;DHT22;30529;53.570;9.964;2023-06-26T09:05:15;28.10;99.90
44817;DHT22;30529;53.570;9.964;2023-06-26T09:07:42;28.10;99.90
44817;DHT22;30529;53.570;9.964;2023-06-26T09:10:08;28.10;99.90
44817;DHT22;30529;53.570;9.964;2023-06-26T09:12:35;28.30;99.90
44817;DHT22;30529;53.570;9.964;2023-06-26T09:15:02;28.40;99.90
44817;DHT22;30529;53.570;9.964;2023-06-26T09:17:39;28.40;99.90
44817;DHT22;30529;53.570;9.964;2023-06-26T09:20:09;28.50;99.90
44817;DHT22;30529;53.570;9.964;2023-06-26T09:22:37;29.00;99.90
44817;DHT22;30529;53.570;9.964;2023-06-26T09:25:07;29.20;99.90
44817;DHT22;30529;53.570;9.964;2023-06-26T09:27:36;29.30;99.90
44817;DHT22;30529;53.570;9.964;2023-06-26T09:30:03;29.20;99.90
44817;DHT22;30529;53.570;9.964;2023-06-26T09:32:30;28.80;99.90
44817;DHT22;30529;53.570;9.964;2023-06-26T09:34:56;28.50;99.90
44817;DHT22;30529;53.570;9.964;2023-06-26T09:37:22;28.30;99.90
44817;DHT22;30529;53.570;9.964;2023-06-26T09:39:48;28.10;99.90
44817;DHT22;30529;53.570;9.964;2023-06-26T09:42:15;27.70;99.90
44817;DHT22;30529;53.570;9.964;2023-06-26T09:44:45;27.70;99.90
44817;DHT22;30529;53.570;9.964;2023-06-26T09:47:11;27.70;99.90
44817;DHT22;30529;53.570;9.964;2023-06-26T09:49:41;27.60;99.90
44817;DHT22;30529;53.570;9.964;2023-06-26T09:52:08;27.50;99.90
44817;DHT22;30529;53.570;9.964;2023-06-26T09:54:34;27.10;99.90
44817;DHT22;30529;53.570;9.964;2023-06-26T09:57:11;26.90;99.90
44817;DHT22;30529;53.570;9.964;2023-06-26T09:59:37;26.60;99.90
44817;DHT22;30529;53.570;9.964;2023-06-26T10:02:04;26.20;99.90
44817;DHT22;30529;53.570;9.964;2023-06-26T10:04:30;26.00;99.90
44817;DHT22;30529;53.570;9.964;2023-06-26T10:06:57;25.90;99.90
44817;DHT22;30529;53.570;9.964;2023-06-26T10:09:24;25.80;99.90
44817;DHT22;30529;53.570;9.964;2023-06-26T10:12:11;25.50;99.90
44817;DHT22;30529;53.570;9.964;2023-06-26T10:14:41;25.20;99.90
44817;DHT22;30529;53.570;9.964;2023-06-26T10:17:10;25.10;99.90
44817;DHT22;30529;53.570;9.964;2023-06-26T10:19:37;25.00;99.90
44817;DHT22;30529;53.570;9.964;2023-06-26T10:22:04;24.70;99.90
44817;DHT22;30529;53.570;9.964;2023-06-26T10:24:33;24.30;99.90
44817;DHT22;30529;53.570;9.964;2023-06-26T10:27:04;23.90;99.90
44817;DHT22;30529;53.570;9.964;2023-06-26T10:29:34;23.60;99.90
44817;DHT22;30529;53.570;9.964;2023-06-26T10:32:02;23.30;99.90
44817;DHT22;30529;53.570;9.964;2023-06-26T10:34:29;23.10;99.90
44817;DHT22;30529;53.570;9.964;2023-06-26T10:36:59;22.90;99.90
44817;DHT22;30529;53.570;9.964;2023-06-26T10:39:26;22.80;99.90
44817;DHT22;30529;53.570;9.964;2023-06-26T10:41:54;23.00;99.90
44817;DHT22;30529;53.570;9.964;2023-06-26T10:44:21;23.10;99.90
44817;DHT22;30529;53.570;9.964;2023-06-26T10:46:55;23.30;99.90
44817;DHT22;30529;53.570;9.964;2023-06-26T10:49:27;23.80;99.90
44817;DHT22;30529;53.570;9.964;2023-06-26T10:51:53;24.10;99.90
44817;DHT22;30529;53.570;9.964;2023-06-26T10:54:21;24.10;99.90
44817;DHT22;30529;53.570;9.964;2023-06-26T10:56:50;24.00;99.90
44817;DHT22;30529;53.570;9.964;2023-06-26T10:59:26;24.20;99.90
44817;DHT22;30529;53.570;9.964;2023-06-26T11:02:04;24.50;99.90
44817;DHT22;30529;53.570;9.964;2023-06-26T11:04:46;24.90;99.90
44817;DHT22;30529;53.570;9.964;2023-06-26T11:07:20;25.00;99.90
44817;DHT22;30529;53.570;9.964;2023-06-26T11:10:07;25.10;99.90
44817;DHT22;30529;53.570;9.964;2023-06-26T11:12:35;25.00;99.90
44817;DHT22;30529;53.570;9.964;2023-06-26T11:15:12;25.10;99.90
44817;DHT22;30529;53.570;9.964;2023-06-26T11:17:40;25.10;99.90
44817;DHT22;30529;53.570;9.964;2023-06-26T11:20:10;25.10;99.90
44817;DHT22;30529;53.570;9.964;2023-06-26T11:22:38;24.80;99.90
44817;DHT22;30529;53.570;9.964;2023-06-26T11:25:06;24.90;99.90
44817;DHT22;30529;53.570;9.964;2023-06-26T11:27:39;25.10;99.90
44817;DHT22;30529;53.570;9.964;2023-06-26T11:30:06;24.90;99.90
44817;DHT22;30529;53.570;9.964;2023-06-26T11:32:32;24.60;99.90
44817;DHT22;30529;53.570;9.964;2023-06-26T11:34:59;24.70;99.90
44817;DHT22;30529;53.570;9.964;2023-06-26T11:37:25;24.80;99.90
44817;DHT22;30529;53.570;9.964;2023-06-26T11:39:52;24.80;99.90
44817;DHT22;30529;53.570;9.964;2023-06-26T11:42:19;24.90;99.90
44817;DHT22;30529;53.570;9.964;2023-06-26T11:44:47;24.80;99.90
44817;DHT22;30529;53.570;9.964;2023-06-26T11:47:17;24.60;99.90
44817;DHT22;30529;53.570;9.964;2023-06-26T11:49:47;24.40;99.90
44817;DHT22;30529;53.570;9.964;2023-06-26T11:52:14;24.30;99.90
44817;DHT22;30529;53.570;9.964;2023-06-26T11:54:41;24.20;99.90
44817;DHT22;30529;53.570;9.964;2023-06-26T11:57:08;24.10;99.90
44817;DHT22;30529;53.570;9.964;2023-06-26T11:59:35;24.10;99.90
44817;DHT22;30529;53.570;9.964;2023-06-26T12:02:05;24.30;99.90
44817;DHT22;30529;53.570;9.964;2023-06-26T12:04:32;24.60;99.90
44817;DHT22;30529;53.570;9.964;2023-06-26T12:07:00;24.80;99.90
44817;DHT22;30529;53.570;9.964;2023-06-26T12:09:26;24.70;99.90
44817;DHT22;30529;53.570;9.964;2023-06-26T12:11:54;24.70;99.90
44817;DHT22;30529;53.570;9.964;2023-06-26T12:14:23;24.80;99.90
44817;DHT22;30529;53.570;9.964;2023-06-26T12:16:49;24.20;99.90
44817;DHT22;30529;53.570;9.964;2023-06-26T12:19:15;23.80;99.90
44817;DHT22;30529;53.570;9.964;2023-06-26T12:24:09;23.30;99.90
44817;DHT22;30529;53.570;9.964;2023-06-26T12:26:36;23.40;99.90
44817;DHT22;30529;53.570;9.964;2023-06-26T12:29:10;23.70;99.90
44817;DHT22;30529;53.570;9.964;2023-06-26T12:31:41;23.80;99.90
44817;DHT22;30529;53.570;9.964;2023-06-26T12:34:13;24.20;99.90
44817;DHT22;30529;53.570;9.964;2023-06-26T12:36:47;24.60;99.90
44817;DHT22;30529;53.570;9.964;2023-06-26T12:39:17;24.80;99.90
44817;DHT22;30529;53.570;9.964;2023-06-26T12:41:51;24.70;99.90
44817;DHT22;30529;53.570;9.964;2023-06-26T12:44:19;24.40;99.90
44817;DHT22;30529;53.570;9.964;2023-06-26T12:46:50;24.00;99.90
44817;DHT22;30529;53.570;9.964;2023-06-26T12:49:18;23.60;99.90
44817;DHT22;30529;53.570;9.964;2023-06-26T12:51:45;23.50;99.90
44817;DHT22;30529;53.570;9.964;2023-06-26T12:54:11;23.40;99.90
44817;DHT22;30529;53.570;9.964;2023-06-26T12:56:37;23.30;99.90
44817;DHT22;30529;53.570;9.964;2023-06-26T12:59:03;23.30;99.90
44817;DHT22;30529;53.570;9.964;2023-06-26T13:01:29;23.30;99.90
44817;DHT22;30529;53.570;9.964;2023-06-26T13:03:56;23.20;99.90
44817;DHT22;30529;53.570;9.964;2023-06-26T13:06:22;23.20;99.90
44817;DHT22;30529;53.570;9.964;2023-06-26T13:08:48;23.00;99.90
44817;DHT22;30529;53.570;9.964;2023-06-26T13:11:14;23.10;99.90
44817;DHT22;30529;53.570;9.964;2023-06-26T13:13:42;23.00;99.90
44817;DHT22;30529;53.570;9.964;2023-06-26T13:16:08;23.00;99.90
44817;DHT22;30529;53.570;9.964;2023-06-26T13:18:34;23.10;99.90
44817;DHT22;30529;53.570;9.964;2023-06-26T13:21:00;23.30;99.90
44817;DHT22;30529;53.570;9.964;2023-06-26T13:23:26;23.60;99.90
44817;DHT22;30529;53.570;9.964;2023-06-26T13:25:53;23.80;99.90
44817;DHT22;30529;53.570;9.964;2023-06-26T13:28:19;24.00;99.90
44817;DHT22;30529;53.570;9.964;2023-06-26T13:30:45;24.00;99.90
44817;DHT22;30529;53.570;9.964;2023-06-26T13:33:11;24.00;99.90
44817;DHT22;30529;53.570;9.964;2023-06-26T13:35:37;24.20;99.90
44817;DHT22;30529;53.570;9.964;2023-06-26T13:38:03;24.10;99.90
44817;DHT22;30529;53.570;9.964;2023-06-26T13:40:29;24.20;99.90
44817;DHT22;30529;53.570;9.964;2023-06-26T13:42:55;24.00;99.90
44817;DHT22;30529;53.570;9.964;2023-06-26T13:45:21;24.00;99.90
44817;DHT22;30529;53.570;9.964;2023-06-26T13:47:47;24.00;99.90
44817;DHT22;30529;53.570;9.964;2023-06-26T13:50:13;24.00;99.90
44817;DHT22;30529;53.570;9.964;2023-06-26T13:52:39;24.10;99.90
44817;DHT22;30529;53.570;9.964;2023-06-26T13:55:05;23.90;99.90
44817;DHT22;30529;53.570;9.964;2023-06-26T13:57:31;23.70;99.90
44817;DHT22;30529;53.570;9.964;2023-06-26T13:59:57;23.70;99.90
44817;DHT22;30529;53.570;9.964;2023-06-26T14:02:23;23.60;99.90
44817;DHT22;30529;53.570;9.964;2023-06-26T14:04:49;23.70;99.90
44817;DHT22;30529;53.570;9.964;2023-06-26T14:07:15;24.00;99.90
44817;DHT22;30529;53.570;9.964;2023-06-26T14:09:41;24.10;99.90
44817;DHT22;30529;53.570;9.964;2023-06-26T14:12:07;24.40;99.90
44817;DHT22;30529;53.570;9.964;2023-06-26T14:14:33;24.20;99.90
44817;DHT22;30529;53.570;9.964;2023-06-26T14:17:00;23.90;99.90
44817;DHT22;30529;53.570;9.964;2023-06-26T14:19:26;23.90;99.90
44817;DHT22;30529;53.570;9.964;2023-06-26T14:21:52;23.60;99.90
44817;DHT22;30529;53.570;9.964;2023-06-26T14:24:18;23.50;99.90
44817;DHT22;30529;53.570;9.964;2023-06-26T14:26:44;23.60;99.90
44817;DHT22;30529;53.570;9.964;2023-06-26T14:29:10;23.60;99.90
44817;DHT22;30529;53.570;9.964;2023-06-26T14:31:36;23.70;99.90
44817;DHT22;30529;53.570;9.964;2023-06-26T14:34:02;23.80;99.90
44817;DHT22;30529;53.570;9.964;2023-06-26T14:36:28;23.70;99.90
44817;DHT22;30529;53.570;9.964;2023-06-26T14:38:57;23.70;99.90
44817;DHT22;30529;53.570;9.964;2023-06-26T14:41:25;23.60;99.90
44817;DHT22;30529;53.570;9.964;2023-06-26T14:43:51;23.40;99.90
44817;DHT22;30529;53.570;9.964;2023-06-26T14:46:17;23.40;99.90
44817;DHT22;30529;53.570;9.964;2023-06-26T14:48:43;23.40;99.90
44817;DHT22;30529;53.570;9.964;2023-06-26T14:51:09;23.40;99.90
44817;DHT22;30529;53.570;9.964;2023-06-26T14:53:35;23.50;99.90
44817;DHT22;30529;53.570;9.964;2023-06-26T14:56:01;23.50;99.90
44817;DHT22;30529;53.570;9.964;2023-06-26T14:58:27;23.50;99.90
44817;DHT22;30529;53.570;9.964;2023-06-26T15:00:53;23.40;99.90
44817;DHT22;30529;53.570;9.964;2023-06-26T15:03:19;23.50;99.90
44817;DHT22;30529;53.570;9.964;2023-06-26T15:05:45;23.50;99.90
44817;DHT22;30529;53.570;9.964;2023-06-26T15:08:11;23.40;99.90
44817;DHT22;30529;53.570;9.964;2023-06-26T15:10:37;23.20;99.90
44817;DHT22;30529;53.570;9.964;2023-06-26T15:13:03;23.20;99.90
44817;DHT22;30529;53.570;9.964;2023-06-26T15:15:29;23.50;99.90
44817;DHT22;30529;53.570;9.964;2023-06-26T15:17:55;23.70;99.90
44817;DHT22;30529;53.570;9.964;2023-06-26T15:20:21;23.70;99.90
44817;DHT22;30529;53.570;9.964;2023-06-26T15:22:47;23.60;99.90
44817;DHT22;30529;53.570;9.964;2023-06-26T15:25:13;23.40;99.90
44817;DHT22;30529;53.570;9.964;2023-06-26T15:27:39;23.10;99.90
44817;DHT22;30529;53.570;9.964;2023-06-26T15:30:05;22.90;99.90
44817;DHT22;30529;53.570;9.964;2023-06-26T15:32:32;22.80;99.90
44817;DHT22;30529;53.570;9.964;2023-06-26T15:34:58;22.90;99.90